ADDS METAR Data INFO
IDs: Format: Raw Decoded Include TAF

Data at: 0224 UTC 14 Dec 2017

KANB 140153Z AUTO 25010KT CLR 07/M05 A2987 RMK AO2 SLP124 T00721050 $
KANB 140053Z AUTO 25005KT CLR 04/M05 A2988 RMK AO2 SLP130 T00441050 $
KANB 132353Z AUTO 24008KT CLR 07/M06 A2989 RMK AO2 SLP134 T00671061 10106 20067 56012 $
KANB 132253Z AUTO 22008KT CLR 08/M07 A2990 RMK AO2 SLP136 T00831067 $
KANB 132153Z AUTO 23010KT CLR 10/M08 A2991 RMK AO2 SLP135 T01001078 $
KANB 132053Z AUTO 24014G18KT CLR 11/M08 A2993 RMK AO2 SLP142 T01061083 56031 $
KANB 131953Z AUTO 21010KT CLR 10/M09 A2995 RMK AO2 SLP148 T01001089 $
KANB 131853Z AUTO 22010KT CLR 09/M11 A2998 RMK AO2 SLP158 T00941106 $
KANB 131753Z AUTO 24009KT CLR 08/M11 A3002 RMK AO2 SLP173 T00831111 10083 21044 58026 $
KANB 131653Z AUTO 21003KT CLR 06/M11 A3007 RMK AO2 SLP192 T00611106 $
KANB 131553Z AUTO 00000KT CLR 04/M09 A3010 RMK AO2 SLP202 T00391089 $
KANB 131453Z AUTO 24004KT CLR 02/M08 A3010 RMK AO2 SLP202 T00171078 50002 $
KANB 131353Z AUTO 00000KT CLR M01/M06 A3010 RMK AO2 SLP203 T10111061 $
KANB 131253Z AUTO 00000KT CLR M04/M07 A3010 RMK AO2 SLP203 T10441072 $
KANB 131153Z AUTO 23003KT CLR M04/M07 A3009 RMK AO2 SLP201 T10391072 10022 21039 55001 $
KANB 131053Z AUTO 00000KT CLR M03/M08 A3009 RMK AO2 SLP198 T10331078 $
KANB 130953Z AUTO 22003KT CLR M02/M08 A3008 RMK AO2 SLP195 T10171078 $
KANB 130853Z AUTO 25003KT CLR M02/M08 A3010 RMK AO2 SLP200 T10221078 50002 $
KANB 130753Z AUTO VRB03KT CLR 01/M11 A3011 RMK AO2 SLP202 T00111106 $
KANB 130653Z AUTO CLR 02/M10 A3010 RMK AO2 SLP198 T00171100 $
KANB 130553Z AUTO VRB06KT CLR 02/M10 A3009 RMK AO2 SLP197 T00221100 10078 20022 401110011 51010 $
KANB 130453Z AUTO 34007KT CLR 03/M09 A3009 RMK AO2 SLP196 T00331089 $
KANB 130353Z AUTO 31009G15KT CLR 04/M06 A3008 RMK AO2 SLP193 T00441056 $
KANB 130253Z AUTO 31006G17KT CLR 06/M05 A3006 RMK AO2 SLP186 T00561050 51014 $
KANB 130153Z AUTO 30008G16KT CLR 06/M04 A3004 RMK AO2 SLP180 T00611044 $
KANB 130053Z AUTO 29009KT CLR 07/M03 A3005 RMK AO2 SLP182 T00671033 $
KANB 122353Z AUTO 29008KT CLR 08/M03 A3002 RMK AO2 SLP173 T00781028 10111 20072 53010 $
KANB 122253Z AUTO 30007KT CLR 08/M02 A3000 RMK AO2 SLP166 T00831022 $
KANB 122153Z AUTO 29007KT CLR 10/M03 A3000 RMK AO2 SLP165 T01001028 $
KANB 122053Z AUTO 27012G16KT CLR 11/M02 A2999 RMK AO2 SLP159 T01061017 56012 $
KANB 121953Z AUTO 27013G18KT CLR 11/M01 A2999 RMK AO2 SLP163 T01061011 $
KANB 121853Z AUTO 28012G20KT BKN045 11/01 A3000 RMK AO2 SLP165 T01110006 $
KANB 121753Z AUTO 29013G22KT OVC047 09/00 A3002 RMK AO2 SLP174 T00940000 10100 20028 50003 $
KANB 121653Z AUTO 29010G18KT OVC045 09/01 A3003 RMK AO2 SLP174 T00940006 $
KANB 121553Z AUTO 34011G23KT BKN050 09/00 A3004 RMK AO2 SLP178 T00940000 $
KANB 121453Z AUTO 29011G16KT CLR 08/M01 A3002 RMK AO2 SLP171 T00831006 53030 $